• Join FlightAware (Why Join?)
  • Login
  • US Flag 
03:34PM EDT


 

Airport Tracker/Info


-or-


 

Live Flight TrackerFlight Track Log ✈ LYM752 ✈ 11-Oct-2013 ✈ KGJT - KDEN

Flight Track Log - Related Links

Times and Time Zones

All times are in EDT time to prevent confusion due to time zone crossing. See the LYM752 flight status page for this flight to view local times or setup timezone preferences in your user account.

Time Position Orientation Groundspeed Altitude Reporting Facility
EDT Latitude Longitude Course Direction KTS MPH feet Rate Location/Type
11:57AM 39.0933 -108.5067 65° Northeast 132 152 6,100  Level Denver Center
11:58AM 39.0628 -108.4961 165° South 119 137 7,200 1,020 Climbing Denver Center
12:00PM 39.0486 -108.5169 229° Southwest 111 128 8,300 960 Climbing Denver Center
12:01PM 39.0778 -108.4997 25° Northeast 123 142 9,300 960 Climbing Denver Center
12:02PM 39.1042 -108.4744 37° Northeast 118 136 10,400 1,020 Climbing Denver Center
12:03PM 39.1909 -108.1986 65° Northeast  Level Estimated
12:03PM 39.1339 -108.4467 36° Northeast 124 143 11,500  Level Denver Center
12:04PM 39.1594 -108.4217 37° Northeast 116 133 12,400 900 Climbing Denver Center
12:05PM 39.1886 -108.3944 36° Northeast 125 144 13,400 840 Climbing Denver Center
12:06PM 39.2153 -108.3708 34° Northeast 118 136 14,200 780 Climbing Denver Center
12:07PM 39.2436 -108.3431 37° Northeast 126 145 15,100 780 Climbing Denver Center
12:08PM 39.2700 -108.3000 52° Northeast 135 155 15,900 720 Climbing Denver Center
12:09PM 39.2953 -108.2611 50° Northeast 142 163 16,700 540 Climbing Denver Center
12:10PM 39.3206 -108.2133 56° Northeast 150 173 17,100 180 Climbing Denver Center
12:11PM 39.3439 -108.1531 63° Northeast 186 214 17,100  Level Denver Center
12:12PM 39.3700 -108.0883 62° Northeast 188 216 17,100  Level Denver Center
12:13PM 39.3950 -108.0253 63° Northeast 198 228 17,100  Level Denver Center
12:14PM 39.4222 -107.9544 64° Northeast 205 236 17,100  Level Denver Center
12:15PM 39.4467 -107.8903 64° Northeast 210 242 17,100  Level Denver Center
12:16PM 39.4753 -107.8175 63° Northeast 204 235 17,100  Level Denver Center
12:17PM 39.4983 -107.7539 65° Northeast 204 235 17,100  Level Denver Center
12:18PM 39.5283 -107.6808 62° Northeast 205 236 17,100  Level Denver Center
12:19PM 39.5547 -107.6189 61° Northeast 205 236 17,100  Level Denver Center
12:20PM 39.5786 -107.5533 65° Northeast 210 242 17,100  Level Denver Center
12:21PM 39.6044 -107.4761 67° East 209 241 17,100  Level Denver Center
12:22PM 39.6272 -107.4103 66° East 209 241 17,100  Level Denver Center
12:23PM 39.6531 -107.3336 66° East 209 241 17,100  Level Denver Center
12:24PM 39.6811 -107.2706 60° Northeast 209 241 17,100  Level Denver Center
12:25PM 39.7114 -107.1975 62° Northeast 210 242 17,100  Level Denver Center
12:26PM 39.7372 -107.1300 64° Northeast 206 237 17,100  Level Denver Center
12:27PM 39.7622 -107.0631 64° Northeast 206 237 17,100  Level Denver Center
12:28PM 39.7867 -106.9961 65° Northeast 204 235 17,100  Level Denver Center
12:29PM 39.8117 -106.9275 65° Northeast 207 238 17,100  Level Denver Center
12:31PM 39.8358 -106.8589 65° Northeast 208 239 17,100  Level Denver Center
12:32PM 39.8608 -106.7900 65° Northeast 209 241 17,100  Level Denver Center
12:33PM 39.8922 -106.7106 63° Northeast 206 237 17,100  Level Denver Center
12:34PM 39.9208 -106.6450 60° Northeast 206 237 17,100  Level Denver Center
12:35PM 39.9478 -106.5789 62° Northeast 206 237 17,100  Level Denver Center
12:36PM 39.9744 -106.5108 63° Northeast 208 239 17,100  Level Denver Center
12:37PM 40.0011 -106.4447 62° Northeast 206 237 17,200  Climbing Denver Center
12:38PM 40.0275 -106.3769 63° Northeast 208 239 17,100 -60 Descending Denver Center
12:39PM 40.0528 -106.2903 69° East 208 239 17,100  Level Denver Center
12:40PM 40.0750 -106.2183 68° East 211 243 17,100 -120 Level Denver Center
12:41PM 40.0964 -106.1458 69° East 212 244 16,900 -120 Descending Denver Center
12:42PM 40.1211 -106.0786 64° Northeast 209 241 16,900  Level Denver Center
12:43PM 40.1469 -106.0089 64° Northeast 210 242 16,900 120 Level Denver Center
12:44PM 40.1728 -105.9417 63° Northeast 209 241 17,200 60 Climbing Denver Center
12:45PM 40.2017 -105.8614 65° Northeast 205 236 17,100 -60 Descending Denver Center
12:46PM 40.2275 -105.7894 65° Northeast 213 245 17,100  Level Denver Center
12:47PM 40.2517 -105.7178 66° East 216 249 17,100  Level Denver Center
12:48PM 40.2761 -105.6464 66° East 215 247 17,100 -60 Level Denver Center
12:49PM 40.3036 -105.5775 62° Northeast 214 246 17,000 -180 Descending Denver Center
12:50PM 40.3297 -105.5083 64° Northeast 211 243 16,800 -480 Descending Denver Center
12:51PM 40.3572 -105.4275 66° East 216 249 16,100 -780 Descending Denver Center
12:52PM 40.3067 -105.3642 136° Southeast 234 269 15,200 -480 Descending Denver Center
12:53PM 40.2578 -105.3106 140° Southeast 230 265 15,100 -120 Descending Denver Center
12:54PM 40.2244 -105.2403 122° Southeast 213 245 15,000 -60 Descending Denver Center
12:55PM 40.1922 -105.1794 125° Southeast 205 236 15,000 60 Level Denver Center
12:56PM 40.1600 -105.1186 125° Southeast 192 221 15,200  Climbing Denver Center
12:57PM 40.1278 -105.0606 126° Southeast 196 226 15,000 -120 Descending Denver Center
12:58PM 40.0931 -104.9933 124° Southeast 207 238 15,000 -360 Level Denver Center
12:59PM 40.0578 -104.9272 125° Southeast 220 253 14,300 -780 Descending Denver Center
01:01PM 40.0208 -104.8564 124° Southeast 234 269 13,500 -660 Descending Denver Center
01:02PM 39.9808 -104.7792 124° Southeast 237 273 13,000 -300 Descending Denver Center
01:03PM 39.9742 -104.7025 96° East 212 244 13,000  Level Denver Center
01:04PM 39.9717 -104.6214 92° East 207 238 13,000 60 Level Denver Center
01:04PM 39.9667 -104.5833 100° East 217 250 13,100 -360 Climbing Denver TRACON
01:05PM 39.9167 -104.5500 153° Southeast 234 269 12,500 -780 Descending Denver TRACON
01:07PM 39.8153 -104.5081 162° South 238 274 11,200 -900 Descending Denver Center
01:08PM 39.7492 -104.5025 176° South 237 273 10,300 -840 Descending Denver Center
01:09PM 39.6867 -104.5019 180° South 224 258 9,500 -840 Descending Denver Center
01:10PM 39.6414 -104.5411 214° Southwest 220 253 8,600 -720 Descending Denver Center
01:11PM 39.6397 -104.6189 268° West 181 208 8,000 -540 Descending Denver Center
01:12PM 39.6814 -104.6394 339° North 171 197 7,600 -300 Descending Denver Center
01:13PM 39.7306 -104.6408 359° North 175 201 7,400 -420 Descending Denver Center
01:14PM 39.7778 -104.6414 359° North 171 197 6,800 -780 Descending Denver Center
01:15PM 39.8206 -104.6419 359° North 152 175 5,900 -780 Descending Denver Center
01:16PM 39.8653 -104.6422 360° North 145 167 5,300 -600 Descending Denver Center
01:18PM 39.8617 -104.6732 174° South  Level Estimated
01:25PM 39.8617 -104.6732 347° North  Level Estimated